Time;durP1;ratioP1;P1;durP2;ratioP2;P2;SDS_P1;SDS_P2;PMS_P1;PMS_P2;Temp;Humidity;BMP_temperature;BMP_pressure;BME280_temperature;BME280_humidity;BME280_pressure;Samples;Min_cycle;Max_cycle;Signal;HPM_P1;HPM_P2
2021/05/07 00:00:16;;;;;;;12.10;8.30;;;;;;;6.93;65.16;98459.02;512214;1100;115973;-59
2021/05/07 00:10:24;;;;;;;7.03;5.65;;;;;;;6.89;65.15;98443.67;512929;1104;115909;-59
2021/05/07 00:20:29;;;;;;;8.33;7.20;;;;;;;6.85;65.70;98428.23;512390;1104;115024;-60
2021/05/07 00:30:34;;;;;;;6.90;6.20;;;;;;;6.81;65.17;98415.48;512169;1104;116016;-59
2021/05/07 00:40:39;;;;;;;8.65;6.90;;;;;;;6.75;65.67;98415.89;512447;1104;115530;-58
2021/05/07 00:50:48;;;;;;;10.90;8.80;;;;;;;6.79;65.63;98410.36;512887;1104;115570;-59
2021/05/07 01:00:55;;;;;;;8.77;6.60;;;;;;;6.83;66.15;98392.73;512002;1104;115495;-61
2021/05/07 01:11:00;;;;;;;7.97;6.57;;;;;;;6.82;65.89;98380.63;513936;1104;116084;-59
2021/05/07 01:21:07;;;;;;;7.53;5.37;;;;;;;6.80;66.49;98383.33;512636;1100;115390;-59
2021/05/07 01:31:11;;;;;;;8.33;6.17;;;;;;;6.75;66.08;98364.56;512647;1104;115681;-58
2021/05/07 01:41:16;;;;;;;10.57;6.67;;;;;;;6.79;66.29;98352.14;513048;1104;115852;-59
2021/05/07 01:51:21;;;;;;;8.70;6.07;;;;;;;6.80;66.52;98330.33;512810;1104;115726;-60
2021/05/07 02:01:25;;;;;;;11.25;6.25;;;;;;;6.69;66.76;98315.39;512344;1104;115305;-59
2021/05/07 02:11:31;;;;;;;15.03;7.87;;;;;;;6.62;67.19;98307.16;513376;1100;115966;-59
2021/05/07 02:21:37;;;;;;;12.70;7.80;;;;;;;6.64;67.41;98310.52;513906;1100;115518;-59
2021/05/07 02:31:42;;;;;;;10.37;7.47;;;;;;;6.65;67.74;98296.53;513353;1104;115925;-60
2021/05/07 02:41:46;;;;;;;9.40;7.33;;;;;;;6.68;68.56;98304.14;513687;1104;115440;-59
2021/05/07 02:51:51;;;;;;;14.30;10.10;;;;;;;6.63;68.93;98306.22;512400;1100;115618;-58
2021/05/07 03:01:56;;;;;;;18.00;10.63;;;;;;;6.53;69.08;98294.77;513412;1099;116124;-59
2021/05/07 03:12:00;;;;;;;11.20;9.00;;;;;;;6.44;69.42;98291.84;512471;1098;116258;-59
2021/05/07 03:22:07;;;;;;;11.20;8.80;;;;;;;6.40;70.36;98299.97;512951;1099;116165;-58
2021/05/07 03:32:21;;;;;;;13.20;10.07;;;;;;;6.35;70.29;98302.89;512361;1104;116397;-60
2021/05/07 03:42:26;;;;;;;12.47;9.83;;;;;;;6.32;71.59;98305.71;512503;1099;116219;-59
2021/05/07 03:52:31;;;;;;;15.07;12.57;;;;;;;6.33;71.89;98312.59;512222;1104;115670;-60
2021/05/07 04:02:35;;;;;;;15.53;13.70;;;;;;;6.21;72.30;98292.56;513651;1098;115709;-60
2021/05/07 04:23:03;;;;;;;18.33;13.03;;;;;;;6.17;72.72;98284.11;513527;1104;181461;-59
2021/05/07 04:33:08;;;;;;;17.00;14.53;;;;;;;6.16;73.11;98280.66;512859;1104;116316;-60
2021/05/07 04:43:12;;;;;;;19.53;13.57;;;;;;;6.21;73.52;98267.31;512357;1104;116255;-58
2021/05/07 04:53:17;;;;;;;16.30;13.60;;;;;;;6.32;73.64;98271.81;512826;1099;115838;-59
2021/05/07 05:03:22;;;;;;;24.70;16.43;;;;;;;6.43;73.26;98284.96;512525;1100;115924;-59
2021/05/07 05:13:34;;;;;;;18.63;15.63;;;;;;;6.47;74.02;98285.59;512567;1100;117519;-60
2021/05/07 05:23:40;;;;;;;19.40;15.97;;;;;;;6.63;74.17;98287.14;512639;1099;116213;-62
2021/05/07 05:33:45;;;;;;;19.67;14.97;;;;;;;6.75;74.25;98288.05;511802;1104;115719;-60
2021/05/07 05:43:49;;;;;;;19.18;14.80;;;;;;;7.06;73.84;98284.16;512530;1104;116194;-59
2021/05/07 05:53:54;;;;;;;14.20;9.65;;;;;;;7.29;72.74;98289.52;513286;1104;116329;-60
2021/05/07 06:03:59;;;;;;;17.07;12.03;;;;;;;7.36;72.68;98290.73;513730;1104;116584;-59
2021/05/07 06:14:04;;;;;;;15.00;11.00;;;;;;;7.48;72.69;98288.19;512884;1104;116702;-61
2021/05/07 06:24:11;;;;;;;11.00;7.63;;;;;;;7.69;72.86;98289.23;517088;1104;115995;-58
2021/05/07 06:34:15;;;;;;;11.63;9.53;;;;;;;7.94;72.52;98297.88;515739;1104;116202;-59
2021/05/07 06:44:20;;;;;;;10.15;8.98;;;;;;;7.96;71.87;98305.63;512857;1104;115829;-60
2021/05/07 06:54:27;;;;;;;13.53;10.33;;;;;;;8.04;72.31;98307.66;512329;1104;115900;-58
2021/05/07 07:04:31;;;;;;;11.43;9.10;;;;;;;8.83;71.99;98301.78;512158;1104;117121;-59
2021/05/07 07:14:38;;;;;;;9.57;8.03;;;;;;;9.30;69.73;98303.41;514264;1104;116381;-60
2021/05/07 07:24:43;;;;;;;9.20;6.67;;;;;;;8.86;69.79;98301.53;512905;1104;116197;-58
2021/05/07 07:34:48;;;;;;;8.57;7.77;;;;;;;8.89;69.34;98308.30;512978;1104;115745;-58
2021/05/07 07:44:52;;;;;;;6.67;5.97;;;;;;;9.48;68.52;98324.67;513459;1104;116333;-57
2021/05/07 07:54:58;;;;;;;6.40;5.75;;;;;;;10.61;67.05;98323.36;512900;1104;116580;-58
2021/05/07 08:05:03;;;;;;;5.83;5.23;;;;;;;10.21;66.25;98330.12;512836;1100;115951;-60
2021/05/07 08:15:09;;;;;;;6.10;4.53;;;;;;;9.59;66.09;98332.52;512257;1100;115958;-51
2021/05/07 08:25:15;;;;;;;5.35;4.35;;;;;;;9.08;66.81;98358.28;512287;1099;116616;-52
2021/05/07 08:35:20;;;;;;;4.60;4.20;;;;;;;9.37;66.57;98357.80;512895;1104;115900;-51
2021/05/07 08:45:25;;;;;;;4.60;4.20;;;;;;;9.57;65.66;98368.47;513224;1104;116063;-51
2021/05/07 08:55:46;;;;;;;6.30;5.47;;;;;;;9.32;65.17;98375.65;512061;1100;116619;-51
2021/05/07 09:05:51;;;;;;;5.17;4.67;;;;;;;9.22;65.41;98393.88;513276;1104;116919;-55
2021/05/07 09:15:55;;;;;;;6.53;5.80;;;;;;;9.11;66.09;98417.45;512326;1100;116862;-58
2021/05/07 09:26:02;;;;;;;5.07;4.57;;;;;;;9.05;66.21;98431.84;512110;1104;117385;-61
2021/05/07 09:36:07;;;;;;;6.55;5.25;;;;;;;9.29;65.84;98443.16;511803;1104;117154;-54
2021/05/07 09:46:12;;;;;;;5.30;4.70;;;;;;;9.80;65.77;98445.28;517657;1104;115551;-61
2021/05/07 09:56:19;;;;;;;6.20;4.90;;;;;;;10.03;64.11;98452.27;512606;1104;115908;-59
2021/05/07 10:06:23;;;;;;;7.03;4.57;;;;;;;9.60;64.00;98462.59;512995;1099;115810;-59
2021/05/07 10:16:31;;;;;;;5.47;4.43;;;;;;;8.98;64.46;98467.29;512415;1104;116046;-59
2021/05/07 10:26:38;;;;;;;5.63;3.55;;;;;;;8.94;64.40;98464.06;512064;1100;116477;-60
2021/05/07 10:36:44;;;;;;;5.40;3.83;;;;;;;8.85;64.70;98477.02;512281;1104;116167;-58
2021/05/07 10:47:06;;;;;;;8.03;4.63;;;;;;;8.62;64.98;98475.18;513154;1104;115357;-59
2021/05/07 10:57:21;;;;;;;5.67;4.93;;;;;;;8.29;65.21;98502.82;513626;1100;116872;-61
2021/05/07 11:07:30;;;;;;;6.70;5.60;;;;;;;8.06;65.07;98515.77;512316;1104;116193;-59
2021/05/07 11:17:35;;;;;;;3.85;3.40;;;;;;;8.12;65.65;98524.95;513993;1100;115258;-58
2021/05/07 11:27:39;;;;;;;5.00;3.27;;;;;;;8.46;66.23;98514.68;512722;1100;115609;-61
2021/05/07 11:37:44;;;;;;;4.30;3.90;;;;;;;8.59;66.35;98532.95;512796;1104;116224;-62
2021/05/07 11:47:49;;;;;;;5.60;3.80;;;;;;;8.43;66.25;98540.22;512051;1100;116397;-60
2021/05/07 11:58:02;;;;;;;6.07;4.47;;;;;;;8.79;66.88;98538.52;512255;1104;116106;-61
2021/05/07 12:08:09;;;;;;;3.27;2.57;;;;;;;9.04;66.36;98534.92;512690;1100;115398;-60
2021/05/07 12:18:17;;;;;;;3.88;3.13;;;;;;;9.93;66.12;98536.09;488603;1104;20001736;-60
2021/05/07 12:28:23;;;;;;;6.37;3.33;;;;;;;10.06;65.22;98530.72;511240;1099;116440;-60
2021/05/07 12:38:33;;;;;;;6.47;3.60;;;;;;;10.38;64.91;98529.92;512418;1100;115746;-60
2021/05/07 12:48:37;;;;;;;5.70;3.20;;;;;;;10.55;64.62;98536.47;511640;1099;118059;-59
2021/05/07 12:58:42;;;;;;;7.47;3.70;;;;;;;10.88;62.42;98529.42;511922;1099;115699;-60
2021/05/07 13:08:47;;;;;;;3.60;2.90;;;;;;;11.05;62.92;98529.83;512298;1104;116192;-60
2021/05/07 13:18:52;;;;;;;4.50;3.00;;;;;;;10.30;62.79;98546.28;511589;1104;115791;-61
2021/05/07 13:28:59;;;;;;;4.70;3.13;;;;;;;9.58;64.67;98568.48;512157;1104;116460;-61
2021/05/07 13:39:05;;;;;;;7.40;3.90;;;;;;;9.36;66.39;98563.10;512594;1104;115670;-62
2021/05/07 13:49:25;;;;;;;4.20;3.73;;;;;;;10.16;66.53;98572.78;511723;1104;115572;-63
2021/05/07 13:59:30;;;;;;;6.50;3.75;;;;;;;10.42;66.40;98569.91;512236;1104;116580;-59
2021/05/07 14:09:35;;;;;;;6.43;3.80;;;;;;;10.62;65.07;98576.20;511497;1104;116319;-61
2021/05/07 14:19:40;;;;;;;2.80;2.53;;;;;;;10.74;64.57;98588.34;512785;1100;116245;-61
2021/05/07 14:29:45;;;;;;;3.33;3.03;;;;;;;10.56;64.21;98593.28;513192;1104;117232;-61
2021/05/07 14:39:50;;;;;;;4.65;2.60;;;;;;;9.90;63.29;98615.00;512393;1104;116222;-60
2021/05/07 14:49:54;;;;;;;2.57;2.37;;;;;;;9.94;63.87;98600.69;513563;1104;116390;-62
2021/05/07 14:59:59;;;;;;;1.00;0.93;;;;;;;10.20;61.85;98614.40;512406;1104;116097;-61
2021/05/07 15:10:05;;;;;;;1.60;1.50;;;;;;;10.07;61.69;98621.56;511070;1104;116877;-59
2021/05/07 15:20:13;;;;;;;1.60;1.00;;;;;;;9.35;60.96;98634.80;512309;1104;116754;-61
2021/05/07 15:30:19;;;;;;;3.30;1.40;;;;;;;8.79;62.30;98635.36;513070;1104;115259;-60
2021/05/07 15:40:24;;;;;;;1.45;1.35;;;;;;;8.48;62.33;98643.59;512173;1104;116051;-58
2021/05/07 15:50:31;;;;;;;2.70;2.00;;;;;;;8.30;62.41;98660.56;511677;1104;115646;-60
2021/05/07 16:00:39;;;;;;;4.70;3.45;;;;;;;7.75;65.13;98710.47;512518;1100;115394;-60
2021/05/07 16:10:45;;;;;;;3.73;2.97;;;;;;;7.34;68.30;98715.68;512208;1100;116285;-64
2021/05/07 16:20:49;;;;;;;4.70;3.23;;;;;;;6.65;68.60;98736.54;512598;1100;116113;-56
2021/05/07 16:31:16;;;;;;;3.70;3.33;;;;;;;6.46;70.16;98740.27;511414;1104;115927;-55
2021/05/07 16:41:22;;;;;;;4.17;3.87;;;;;;;6.91;70.18;98749.73;512874;1099;115984;-58
2021/05/07 16:51:26;;;;;;;3.97;3.60;;;;;;;6.68;70.31;98773.72;512266;1104;115203;-59
2021/05/07 17:01:32;;;;;;;2.70;2.50;;;;;;;6.53;70.41;98785.09;511617;1104;116520;-59
2021/05/07 17:11:38;;;;;;;3.60;3.07;;;;;;;6.25;70.88;98787.58;512089;1100;115785;-56
2021/05/07 17:21:43;;;;;;;2.75;2.20;;;;;;;6.08;70.90;98803.35;511535;1099;115846;-58
2021/05/07 17:31:48;;;;;;;2.80;2.60;;;;;;;5.83;71.46;98816.02;512613;1100;115604;-58
2021/05/07 17:41:52;;;;;;;4.13;3.73;;;;;;;5.77;72.19;98820.70;512078;1100;115908;-58
2021/05/07 17:51:57;;;;;;;3.63;3.33;;;;;;;5.74;72.41;98832.98;511862;1100;115712;-55
2021/05/07 18:02:01;;;;;;;4.50;4.10;;;;;;;5.69;72.49;98849.80;512399;1104;115815;-59
2021/05/07 18:12:13;;;;;;;5.30;4.50;;;;;;;5.68;73.24;98861.14;511527;1104;116137;-57
2021/05/07 18:22:17;;;;;;;;;;;;;;;5.58;73.95;98871.23;512077;1104;116423;-60
2021/05/07 18:32:22;;;;;;;7.27;5.43;;;;;;;5.44;74.40;98877.20;513218;1104;102081;-61
2021/05/07 18:42:46;;;;;;;6.93;6.23;;;;;;;5.43;74.90;98893.75;511614;1099;115827;-65
2021/05/07 18:52:51;;;;;;;6.47;4.73;;;;;;;5.46;75.02;98912.66;512546;1104;115825;-64
2021/05/07 19:03:00;;;;;;;2.80;2.60;;;;;;;5.09;74.74;98934.58;513643;1104;116085;-63
2021/05/07 19:13:05;;;;;;;3.37;2.33;;;;;;;4.73;74.62;98936.38;512565;1104;116064;-64
2021/05/07 19:23:10;;;;;;;2.50;2.30;;;;;;;4.51;74.92;98958.27;513604;1099;115817;-66
2021/05/07 19:33:15;;;;;;;5.37;2.97;;;;;;;4.30;75.85;98978.33;512622;1104;116890;-64
2021/05/07 19:43:20;;;;;;;2.58;2.03;;;;;;;4.19;76.28;98999.65;511526;1104;116621;-64
2021/05/07 19:53:24;;;;;;;3.43;2.10;;;;;;;4.03;76.45;99010.73;512607;1100;116219;-64
2021/05/07 20:03:29;;;;;;;4.30;3.43;;;;;;;3.96;77.04;99026.69;513126;1104;115690;-65
2021/05/07 20:13:34;;;;;;;4.73;3.83;;;;;;;4.02;77.91;99037.64;513340;1100;116321;-63
2021/05/07 20:23:40;;;;;;;4.90;4.50;;;;;;;3.60;78.81;99080.22;512410;1104;115558;-64
2021/05/07 20:33:48;;;;;;;2.95;2.75;;;;;;;3.45;78.75;99103.31;511776;1104;115802;-65
2021/05/07 20:43:53;;;;;;;2.33;1.80;;;;;;;3.14;78.44;99137.48;512549;1104;116080;-64
2021/05/07 20:53:58;;;;;;;1.60;1.50;;;;;;;2.70;77.48;99144.38;511992;1100;116321;-65
2021/05/07 21:04:03;;;;;;;3.07;2.60;;;;;;;2.48;78.28;99149.55;514757;1104;116072;-64
2021/05/07 21:14:08;;;;;;;5.27;3.23;;;;;;;2.33;79.04;99164.78;512880;1104;115777;-62
2021/05/07 21:24:14;;;;;;;3.73;3.20;;;;;;;2.34;79.20;99182.02;513714;1099;115215;-60
2021/05/07 21:34:19;;;;;;;5.03;3.70;;;;;;;2.45;79.50;99185.95;512883;1104;115793;-60
2021/05/07 21:44:24;;;;;;;7.10;4.30;;;;;;;2.62;79.73;99195.70;512050;1104;116071;-62
2021/05/07 21:54:28;;;;;;;7.03;5.37;;;;;;;2.76;79.49;99210.70;512278;1104;115545;-61
2021/05/07 22:04:34;;;;;;;7.20;6.27;;;;;;;2.75;79.82;99217.66;511444;1104;116128;-61
2021/05/07 22:14:42;;;;;;;9.03;6.17;;;;;;;2.89;79.57;99222.33;512021;1104;116185;-61
2021/05/07 22:24:46;;;;;;;9.67;6.67;;;;;;;3.03;80.06;99231.32;511196;1104;115233;-60
2021/05/07 22:34:51;;;;;;;8.80;7.90;;;;;;;3.17;79.87;99235.95;512956;1104;114836;-61
2021/05/07 22:44:56;;;;;;;10.23;9.17;;;;;;;3.26;80.10;99253.76;511866;1104;117085;-60
2021/05/07 22:55:01;;;;;;;9.55;8.15;;;;;;;3.32;79.89;99258.72;511403;1099;116519;-60
2021/05/07 23:05:07;;;;;;;6.98;6.33;;;;;;;3.35;79.95;99268.14;512457;1099;115665;-60
2021/05/07 23:15:15;;;;;;;7.00;6.30;;;;;;;3.29;79.77;99279.61;513903;1104;115960;-60
2021/05/07 23:25:19;;;;;;;5.18;4.68;;;;;;;3.32;79.79;99289.00;514642;1104;116033;-59
2021/05/07 23:35:24;;;;;;;6.43;4.77;;;;;;;3.36;79.68;99290.59;513038;1104;115715;-60
2021/05/07 23:45:49;;;;;;;4.13;3.73;;;;;;;3.38;79.76;99299.16;512018;1100;114995;-59
2021/05/07 23:55:54;;;;;;;4.97;3.77;;;;;;;3.30;79.46;99303.80;513521;1099;115310;-58
